Time;durP1;ratioP1;P1;durP2;ratioP2;P2;SDS_P1;SDS_P2;PMS_P1;PMS_P2;Temp;Humidity;BMP_temperature;BMP_pressure;BME280_temperature;BME280_humidity;BME280_pressure;Samples;Min_cycle;Max_cycle;Signal;HPM_P1;HPM_P2
2021/12/10 00:01:07;;;;;;;;;;;;;;;5.23;87.33;99413.22;5091274;28;19939;-82
2021/12/10 00:03:36;;;;;;;;;;;;;;;5.26;86.85;99406.88;5086179;28;19939;-81
2021/12/10 00:06:04;;;;;;;;;;;;;;;5.25;86.69;99408.69;5088768;28;19938;-82
2021/12/10 00:08:33;;;;;;;;;;;;;;;5.25;86.68;99402.53;5087889;28;20080;-82
2021/12/10 00:11:01;;;;;;;;;;;;;;;5.25;86.67;99410.47;5089929;28;20011;-81
2021/12/10 00:13:28;;;;;;;;;;;;;;;5.20;86.23;99396.75;5086802;28;19955;-81
2021/12/10 00:15:55;;;;;;;;;;;;;;;5.21;86.72;99396.59;5088027;28;19967;-82
2021/12/10 00:18:24;;;;;;;;;;;;;;;5.20;86.59;99394.94;5087395;28;20025;-81
2021/12/10 00:20:57;;;;;;;;;;;;;;;5.18;86.38;99388.91;5085995;28;19928;-81
2021/12/10 00:23:26;;;;;;;;;;;;;;;5.13;86.60;99371.69;5087109;28;19933;-81
2021/12/10 00:25:53;;;;;;;;;;;;;;;5.18;86.65;99385.38;5086538;28;20350;-81
2021/12/10 00:28:23;;;;;;;;;;;;;;;5.12;86.32;99373.44;5089360;28;20284;-82
2021/12/10 00:31:01;;;;;;;;;;;;;;;5.03;86.34;99361.75;5087878;28;19928;-82
2021/12/10 00:33:29;;;;;;;;;;;;;;;5.02;86.70;99359.22;5088364;28;19954;-83
2021/12/10 00:35:58;;;;;;;;;;;;;;;5.00;86.52;99354.03;5086460;28;19964;-82
2021/12/10 00:38:24;;;;;;;;;;;;;;;5.01;86.88;99345.16;5087906;28;19971;-82
2021/12/10 00:40:51;;;;;;;;;;;;;;;5.06;86.64;99334.22;5087377;28;19928;-81
2021/12/10 00:43:18;;;;;;;;;;;;;;;5.05;86.56;99327.25;5086391;28;20011;-82
2021/12/10 00:45:44;;;;;;;;;;;;;;;5.06;86.28;99329.75;5084784;28;20016;-81
2021/12/10 00:48:11;;;;;;;;;;;;;;;5.05;86.47;99320.16;5088071;28;19924;-82
2021/12/10 00:50:39;;;;;;;;;;;;;;;5.05;86.34;99309.56;5083622;28;20026;-81
2021/12/10 00:53:07;;;;;;;;;;;;;;;4.95;86.11;99308.53;5088420;28;19958;-81
2021/12/10 00:55:34;;;;;;;;;;;;;;;4.95;86.32;99300.59;5085457;28;19996;-82
2021/12/10 00:58:01;;;;;;;;;;;;;;;5.01;87.12;99297.53;5089983;28;20023;-81
2021/12/10 01:00:30;;;;;;;;;;;;;;;5.04;86.44;99291.16;5085534;28;19928;-82
2021/12/10 01:02:58;;;;;;;;;;;;;;;4.98;86.41;99281.88;5087120;28;20015;-81
2021/12/10 01:05:26;;;;;;;;;;;;;;;4.98;86.22;99278.38;5087191;28;19995;-82
2021/12/10 01:07:52;;;;;;;;;;;;;;;4.94;86.10;99276.94;5089372;28;20332;-81
2021/12/10 01:10:23;;;;;;;;;;;;;;;4.92;86.49;99266.47;5085813;28;19935;-82
2021/12/10 01:12:51;;;;;;;;;;;;;;;4.93;86.22;99269.94;5086774;28;19928;-81
2021/12/10 01:15:37;;;;;;;;;;;;;;;4.93;86.61;99264.66;5085337;28;20015;-83
2021/12/10 01:23:52;;;;;;;;;;;;;;;4.87;86.15;99247.44;5084780;28;19939;-82
2021/12/10 01:26:36;;;;;;;;;;;;;;;4.90;86.12;99241.91;5083055;28;19935;-82
2021/12/10 01:29:03;;;;;;;;;;;;;;;4.86;85.88;99235.19;5086392;28;19958;-82
2021/12/10 01:31:30;;;;;;;;;;;;;;;4.84;86.43;99234.41;5084342;28;19938;-82
2021/12/10 01:33:56;;;;;;;;;;;;;;;4.82;86.47;99226.63;5086714;28;19968;-82
2021/12/10 01:36:24;;;;;;;;;;;;;;;4.80;86.24;99217.97;5079249;28;19934;-81
2021/12/10 01:38:53;;;;;;;;;;;;;;;4.78;85.73;99222.50;5087318;28;19977;-81
2021/12/10 01:41:24;;;;;;;;;;;;;;;4.81;86.63;99218.78;5082205;28;19989;-81
2021/12/10 01:43:52;;;;;;;;;;;;;;;4.82;85.42;99216.03;5086459;28;19932;-81
2021/12/10 01:46:25;;;;;;;;;;;;;;;4.81;85.76;99213.50;5086207;28;19932;-81
2021/12/10 01:48:53;;;;;;;;;;;;;;;4.81;85.96;99210.84;5083400;28;19928;-81
2021/12/10 01:51:25;;;;;;;;;;;;;;;4.80;85.40;99209.16;5080732;28;19997;-81
2021/12/10 01:53:53;;;;;;;;;;;;;;;4.82;86.17;99207.25;5086004;28;20470;-82
2021/12/10 01:56:24;;;;;;;;;;;;;;;4.83;85.83;99196.56;5081909;28;19935;-82
2021/12/10 01:58:51;;;;;;;;;;;;;;;4.82;85.98;99201.94;5083618;28;20003;-82
2021/12/10 02:01:19;;;;;;;;;;;;;;;4.81;86.02;99182.59;5083193;28;20018;-81
2021/12/10 02:03:47;;;;;;;;;;;;;;;4.81;85.73;99184.41;5082553;28;19964;-81
2021/12/10 02:06:14;;;;;;;;;;;;;;;4.81;85.83;99169.38;5081926;28;19928;-81
2021/12/10 02:08:41;;;;;;;;;;;;;;;4.79;85.45;99163.38;5080019;28;19967;-81
2021/12/10 02:11:08;;;;;;;;;;;;;;;4.80;85.59;99154.50;5080498;28;19977;-81
2021/12/10 02:13:36;;;;;;;;;;;;;;;4.82;85.60;99154.34;5084793;28;19954;-81
2021/12/10 02:16:03;;;;;;;;;;;;;;;4.83;85.89;99143.66;5081418;28;19924;-82
2021/12/10 02:18:30;;;;;;;;;;;;;;;4.83;86.26;99143.66;5085850;28;19963;-81
2021/12/10 02:21:13;;;;;;;;;;;;;;;4.85;85.66;99146.19;5079271;28;20035;-81
2021/12/10 02:23:41;;;;;;;;;;;;;;;4.82;85.22;99139.34;5083978;28;20292;-81
2021/12/10 02:26:08;;;;;;;;;;;;;;;4.84;85.68;99133.91;5082350;28;19971;-81
2021/12/10 02:28:35;;;;;;;;;;;;;;;4.83;85.96;99122.50;5085257;28;20269;-82
2021/12/10 02:31:02;;;;;;;;;;;;;;;4.86;86.09;99124.09;5083320;28;20415;-81
2021/12/10 02:33:29;;;;;;;;;;;;;;;4.84;85.74;99110.97;5082776;28;19980;-81
2021/12/10 02:35:56;;;;;;;;;;;;;;;4.86;85.43;99109.03;5081715;28;19932;-81
2021/12/10 02:38:25;;;;;;;;;;;;;;;4.90;86.01;99092.94;5081642;28;19935;-81
2021/12/10 02:40:52;;;;;;;;;;;;;;;4.90;85.59;99090.28;5083374;28;20055;-81
2021/12/10 02:43:21;;;;;;;;;;;;;;;4.92;85.67;99098.97;5081217;28;21409;-82
2021/12/10 02:45:49;;;;;;;;;;;;;;;4.93;85.44;99084.75;5086194;28;20394;-82
2021/12/10 02:48:16;;;;;;;;;;;;;;;4.93;85.91;99082.94;5086375;28;20515;-81
2021/12/10 02:50:44;;;;;;;;;;;;;;;4.97;85.98;99072.97;5087317;28;19924;-84
2021/12/10 02:53:14;;;;;;;;;;;;;;;4.96;85.46;99079.25;5086192;28;21049;-82
2021/12/10 02:55:42;;;;;;;;;;;;;;;4.99;85.51;99063.13;5088655;28;19982;-82
2021/12/10 02:58:12;;;;;;;;;;;;;;;4.98;85.76;99059.63;5085896;28;21052;-80
2021/12/10 03:00:40;;;;;;;;;;;;;;;4.99;85.43;99052.53;5089827;28;19935;-82
2021/12/10 03:03:07;;;;;;;;;;;;;;;5.02;86.30;99052.31;5090379;28;19959;-81
2021/12/10 03:05:33;;;;;;;;;;;;;;;4.99;85.80;99057.81;5085794;28;19924;-82
2021/12/10 03:08:00;;;;;;;;;;;;;;;4.98;85.41;99045.56;5086368;28;20007;-81
2021/12/10 03:10:28;;;;;;;;;;;;;;;4.99;86.09;99049.88;5086846;28;19931;-81
2021/12/10 03:12:56;;;;;;;;;;;;;;;5.02;85.85;99031.97;5089453;28;19976;-82
2021/12/10 03:15:24;;;;;;;;;;;;;;;5.01;86.01;99027.66;5086660;28;19968;-81
2021/12/10 03:17:50;;;;;;;;;;;;;;;5.02;85.94;99028.50;5087722;28;19969;-81
2021/12/10 03:20:18;;;;;;;;;;;;;;;5.04;85.87;99031.88;5087950;28;20013;-82
2021/12/10 03:22:45;;;;;;;;;;;;;;;5.03;85.66;99024.91;5086394;28;19925;-82
2021/12/10 03:25:13;;;;;;;;;;;;;;;5.02;86.09;99010.81;5086909;28;19928;-82
2021/12/10 03:27:40;;;;;;;;;;;;;;;5.05;86.18;99002.66;5088363;28;19931;-82
2021/12/10 03:30:10;;;;;;;;;;;;;;;5.04;85.75;99003.59;5086054;28;20023;-82
2021/12/10 03:32:37;;;;;;;;;;;;;;;5.05;86.21;99004.47;5086736;28;19961;-82
2021/12/10 03:35:08;;;;;;;;;;;;;;;5.05;86.27;98997.34;5088569;28;19932;-81
2021/12/10 03:37:35;;;;;;;;;;;;;;;5.10;86.15;98990.84;5085597;28;19928;-82
2021/12/10 03:40:01;;;;;;;;;;;;;;;5.09;86.35;99000.59;5088273;28;19928;-81
2021/12/10 03:42:28;;;;;;;;;;;;;;;5.09;86.14;98989.19;5084107;28;19936;-83
2021/12/10 03:44:54;;;;;;;;;;;;;;;5.09;86.44;98989.19;5086805;28;20006;-82
2021/12/10 03:47:22;;;;;;;;;;;;;;;5.07;85.93;98966.31;5084987;28;20303;-82
2021/12/10 03:49:50;;;;;;;;;;;;;;;5.04;86.71;98976.31;5088955;28;19981;-82
2021/12/10 03:52:17;;;;;;;;;;;;;;;5.06;86.21;98967.28;5084886;28;19956;-82
2021/12/10 03:54:44;;;;;;;;;;;;;;;5.09;86.44;98960.09;5087912;28;19963;-82
2021/12/10 03:57:11;;;;;;;;;;;;;;;5.05;86.05;98955.03;5066073;28;19949;-82
2021/12/10 03:59:38;;;;;;;;;;;;;;;5.04;86.72;98948.03;5087202;28;20911;-82
2021/12/10 04:02:08;;;;;;;;;;;;;;;5.07;86.97;98954.91;5084668;28;20027;-81
2021/12/10 04:04:37;;;;;;;;;;;;;;;5.08;86.72;98945.97;5086061;28;19933;-83
2021/12/10 04:07:06;;;;;;;;;;;;;;;5.10;86.90;98938.75;5087765;28;19981;-82
2021/12/10 04:09:33;;;;;;;;;;;;;;;5.12;86.80;98931.53;5084963;28;19959;-82
2021/12/10 04:11:59;;;;;;;;;;;;;;;5.13;86.65;98929.75;5087908;28;20525;-82
2021/12/10 04:14:26;;;;;;;;;;;;;;;5.04;86.58;98913.63;5084349;28;19925;-82
2021/12/10 04:16:56;;;;;;;;;;;;;;;5.12;86.18;98920.13;5084812;28;20301;-82
2021/12/10 04:19:24;;;;;;;;;;;;;;;5.08;86.80;98922.19;5089366;28;19940;-82
2021/12/10 04:21:55;;;;;;;;;;;;;;;5.06;86.88;98913.53;5087406;28;20344;-82
2021/12/10 04:24:23;;;;;;;;;;;;;;;5.10;86.93;98914.94;5083810;28;20300;-82
2021/12/10 04:26:49;;;;;;;;;;;;;;;5.14;86.73;98910.25;5088461;28;19932;-81
2021/12/10 04:29:19;;;;;;;;;;;;;;;5.15;86.54;98909.31;5084644;28;19946;-82
2021/12/10 04:31:46;;;;;;;;;;;;;;;5.15;86.46;98898.72;5087880;28;19928;-81
2021/12/10 04:34:12;;;;;;;;;;;;;;;5.16;86.69;98889.81;5088643;28;19971;-82
2021/12/10 04:36:39;;;;;;;;;;;;;;;5.18;86.59;98891.38;5087711;28;19939;-84
2021/12/10 04:39:08;;;;;;;;;;;;;;;5.18;86.29;98886.09;5086248;28;19928;-82
2021/12/10 04:41:34;;;;;;;;;;;;;;;5.21;86.31;98880.53;5083356;28;20410;-82
2021/12/10 04:44:01;;;;;;;;;;;;;;;5.24;86.58;98879.44;5087623;28;20394;-82
2021/12/10 04:46:28;;;;;;;;;;;;;;;5.28;86.48;98872.09;5087356;28;19991;-84
2021/12/10 04:48:57;;;;;;;;;;;;;;;5.33;86.75;98872.53;5084304;28;19984;-82
2021/12/10 04:51:25;;;;;;;;;;;;;;;5.31;85.97;98869.19;5087461;28;19970;-84
2021/12/10 04:53:52;;;;;;;;;;;;;;;5.29;86.22;98864.00;5088307;28;19946;-81
2021/12/10 04:56:20;;;;;;;;;;;;;;;5.28;85.75;98864.16;5086822;28;19969;-81
2021/12/10 04:58:46;;;;;;;;;;;;;;;5.34;86.22;98855.72;5086459;28;19996;-82
2021/12/10 05:01:13;;;;;;;;;;;;;;;5.34;86.19;98858.38;5083904;28;19924;-82
2021/12/10 05:03:40;;;;;;;;;;;;;;;5.36;85.81;98857.25;5085926;28;19932;-82
2021/12/10 05:06:06;;;;;;;;;;;;;;;5.37;85.89;98851.00;5084945;28;19960;-82
2021/12/10 05:08:35;;;;;;;;;;;;;;;5.36;86.06;98844.03;5087071;28;19939;-82
2021/12/10 05:11:03;;;;;;;;;;;;;;;5.35;85.86;98841.50;5086062;28;20338;-82
2021/12/10 05:13:31;;;;;;;;;;;;;;;5.37;85.79;98847.50;5088988;28;19932;-82
2021/12/10 05:15:58;;;;;;;;;;;;;;;5.36;85.61;98843.19;5084118;28;19928;-81
2021/12/10 05:18:26;;;;;;;;;;;;;;;5.39;86.07;98830.53;5087607;28;19988;-82
2021/12/10 05:20:53;;;;;;;;;;;;;;;5.42;85.78;98843.50;5086839;28;19925;-82
2021/12/10 05:23:20;;;;;;;;;;;;;;;5.40;85.61;98848.09;5089496;28;20026;-82
2021/12/10 05:25:46;;;;;;;;;;;;;;;5.41;85.93;98841.00;5083762;28;19932;-82
2021/12/10 05:28:14;;;;;;;;;;;;;;;5.40;85.88;98832.22;5085400;28;19928;-82
2021/12/10 05:30:42;;;;;;;;;;;;;;;5.42;86.07;98832.09;5085140;28;19928;-84
2021/12/10 05:33:14;;;;;;;;;;;;;;;5.44;85.97;98827.50;5084639;28;20027;-82
2021/12/10 05:35:41;;;;;;;;;;;;;;;5.46;85.97;98822.91;5083736;28;20511;-82
2021/12/10 05:38:08;;;;;;;;;;;;;;;5.47;85.96;98830.72;5087302;28;19928;-82
2021/12/10 05:40:35;;;;;;;;;;;;;;;5.48;86.07;98826.28;5086844;28;20414;-82
2021/12/10 05:43:01;;;;;;;;;;;;;;;5.48;86.24;98834.22;5087244;28;19967;-82
2021/12/10 05:45:28;;;;;;;;;;;;;;;5.46;85.86;98829.06;5085870;28;19962;-82
2021/12/10 05:47:56;;;;;;;;;;;;;;;5.47;86.29;98827.25;5086097;28;19975;-81
2021/12/10 05:50:24;;;;;;;;;;;;;;;5.46;85.53;98823.78;5085583;28;20046;-82
2021/12/10 05:52:51;;;;;;;;;;;;;;;5.47;86.19;98822.78;5086115;28;20035;-82
2021/12/10 05:55:17;;;;;;;;;;;;;;;5.49;85.70;98829.78;5085731;28;19963;-82
2021/12/10 05:57:44;;;;;;;;;;;;;;;5.46;85.93;98828.22;5083231;28;19979;-81
2021/12/10 06:00:13;;;;;;;;;;;;;;;5.45;86.28;98824.72;5087181;28;19924;-81
2021/12/10 06:02:41;;;;;;;;;;;;;;;5.47;85.98;98825.44;5089406;28;19962;-82
2021/12/10 06:05:09;;;;;;;;;;;;;;;5.47;86.07;98821.97;5085092;28;19964;-81
2021/12/10 06:07:38;;;;;;;;;;;;;;;5.45;85.80;98816.78;5085921;28;19964;-83
2021/12/10 06:10:05;;;;;;;;;;;;;;;5.42;85.88;98830.28;5089924;28;20423;-82
2021/12/10 06:12:32;;;;;;;;;;;;;;;5.42;85.92;98832.91;5085147;28;19980;-82
2021/12/10 06:14:58;;;;;;;;;;;;;;;5.43;86.30;98831.13;5087237;28;19985;-81
2021/12/10 06:17:25;;;;;;;;;;;;;;;5.44;86.24;98827.50;5086702;28;19970;-82
2021/12/10 06:19:51;;;;;;;;;;;;;;;5.45;86.15;98835.31;5085346;28;19929;-81
2021/12/10 06:22:19;;;;;;;;;;;;;;;5.46;85.94;98829.06;5093036;28;19996;-82
2021/12/10 06:24:46;;;;;;;;;;;;;;;5.46;86.31;98826.44;5091533;28;19979;-82
2021/12/10 06:27:12;;;;;;;;;;;;;;;5.47;86.16;98830.72;5087835;28;19928;-82
2021/12/10 06:29:41;;;;;;;;;;;;;;;5.46;86.19;98833.50;5088009;28;20035;-82
2021/12/10 06:32:09;;;;;;;;;;;;;;;5.45;85.93;98830.03;5089884;28;19955;-82
2021/12/10 06:34:35;;;;;;;;;;;;;;;5.44;86.23;98836.31;5090932;28;19975;-82
2021/12/10 06:37:02;;;;;;;;;;;;;;;5.47;86.36;98825.44;5088627;28;19977;-83
2021/12/10 06:39:30;;;;;;;;;;;;;;;5.48;86.89;98839.50;5090203;28;19927;-82
2021/12/10 06:41:57;;;;;;;;;;;;;;;5.47;86.01;98829.91;5090367;28;19931;-82
2021/12/10 06:44:24;;;;;;;;;;;;;;;5.50;86.19;98840.25;5085640;28;19960;-83
2021/12/10 06:46:51;;;;;;;;;;;;;;;5.51;86.38;98831.31;5090614;28;20049;-82
2021/12/10 06:49:19;;;;;;;;;;;;;;;5.51;86.13;98836.63;5086712;28;19954;-82
2021/12/10 06:51:45;;;;;;;;;;;;;;;5.53;86.41;98836.50;5086801;28;20018;-82
2021/12/10 06:54:12;;;;;;;;;;;;;;;5.51;86.45;98841.91;5089863;28;19966;-82
2021/12/10 06:56:40;;;;;;;;;;;;;;;5.49;86.11;98840.38;5089068;28;19959;-82
2021/12/10 06:59:07;;;;;;;;;;;;;;;5.46;86.54;98846.75;5086869;28;19963;-82
2021/12/10 07:01:35;;;;;;;;;;;;;;;5.45;86.45;98853.03;5088843;28;19959;-82
2021/12/10 07:04:05;;;;;;;;;;;;;;;5.43;85.98;98850.50;5087930;28;19928;-82
2021/12/10 07:06:32;;;;;;;;;;;;;;;5.42;86.19;98851.44;5085559;28;19932;-82
2021/12/10 07:08:59;;;;;;;;;;;;;;;5.39;86.19;98849.06;5091045;28;19936;-82
2021/12/10 07:11:27;;;;;;;;;;;;;;;5.40;86.06;98850.75;5083058;28;19908;-82
2021/12/10 07:13:56;;;;;;;;;;;;;;;5.40;86.47;98844.63;5086560;28;20062;-81
2021/12/10 07:16:24;;;;;;;;;;;;;;;5.39;86.28;98850.88;5082824;28;19932;-82
2021/12/10 07:18:52;;;;;;;;;;;;;;;5.35;86.36;98847.66;5089936;28;19927;-83
2021/12/10 07:21:18;;;;;;;;;;;;;;;5.32;85.79;98845.25;5087560;28;19939;-82
2021/12/10 07:23:45;;;;;;;;;;;;;;;5.33;86.80;98848.72;5086170;28;19999;-82
2021/12/10 07:26:13;;;;;;;;;;;;;;;5.35;86.56;98850.31;5087537;28;20054;-82
2021/12/10 07:28:40;;;;;;;;;;;;;;;5.38;87.24;98859.78;5087926;28;19932;-82
2021/12/10 07:31:08;;;;;;;;;;;;;;;5.41;86.98;98862.19;5084118;28;20000;-82
2021/12/10 07:33:35;;;;;;;;;;;;;;;5.42;86.76;98863.84;5083118;28;19934;-82
2021/12/10 07:36:02;;;;;;;;;;;;;;;5.41;87.00;98863.03;5087304;28;20008;-82
2021/12/10 07:38:28;;;;;;;;;;;;;;;5.38;86.47;98857.97;5085643;28;19971;-82
2021/12/10 07:40:55;;;;;;;;;;;;;;;5.37;86.29;98861.59;5087932;28;20520;-81
2021/12/10 07:43:22;;;;;;;;;;;;;;;5.36;86.38;98865.19;5084926;28;19975;-82
2021/12/10 07:45:49;;;;;;;;;;;;;;;5.36;86.45;98865.19;5083601;28;20082;-81
2021/12/10 07:48:19;;;;;;;;;;;;;;;5.38;86.74;98868.56;5086608;28;20378;-82
2021/12/10 07:50:52;;;;;;;;;;;;;;;5.38;86.88;98871.19;5090967;28;19964;-82
2021/12/10 07:53:19;;;;;;;;;;;;;;;5.42;87.06;98872.63;5084480;28;19978;-80
2021/12/10 07:55:46;;;;;;;;;;;;;;;5.43;86.72;98874.31;5088200;28;19932;-81
2021/12/10 07:58:12;;;;;;;;;;;;;;;5.43;87.07;98866.38;5077735;28;20019;-82
2021/12/10 08:00:41;;;;;;;;;;;;;;;5.43;86.90;98869.03;5081907;28;19931;-82
2021/12/10 08:03:08;;;;;;;;;;;;;;;5.36;86.54;98867.00;5085801;28;19955;-83
2021/12/10 08:05:36;;;;;;;;;;;;;;;5.44;86.89;98869.84;5084839;28;19964;-82
2021/12/10 08:08:05;;;;;;;;;;;;;;;5.44;87.03;98876.03;5087422;28;20026;-83
2021/12/10 08:10:32;;;;;;;;;;;;;;;5.42;86.95;98874.44;5085632;28;20015;-82
2021/12/10 08:12:58;;;;;;;;;;;;;;;5.40;87.07;98876.38;5085244;28;19929;-81
2021/12/10 08:15:25;;;;;;;;;;;;;;;5.40;87.06;98877.22;5083296;28;19931;-82
2021/12/10 08:17:51;;;;;;;;;;;;;;;5.41;87.48;98876.25;5082626;28;20000;-81
2021/12/10 08:20:20;;;;;;;;;;;;;;;5.45;87.32;98880.31;5083255;28;20526;-81
2021/12/10 08:22:49;;;;;;;;;;;;;;;5.47;87.22;98878.38;5084591;28;19939;-81
2021/12/10 08:25:16;;;;;;;;;;;;;;;5.50;87.39;98885.25;5086895;28;20023;-81
2021/12/10 08:27:43;;;;;;;;;;;;;;;5.52;86.89;98880.69;5081851;28;19928;-81
2021/12/10 08:30:11;;;;;;;;;;;;;;;5.57;86.89;98885.56;5085005;28;19924;-81
2021/12/10 08:32:38;;;;;;;;;;;;;;;5.52;86.51;98885.97;5082829;28;20327;-82
2021/12/10 08:35:06;;;;;;;;;;;;;;;5.49;86.99;98894.16;5085319;28;19928;-82
2021/12/10 08:37:33;;;;;;;;;;;;;;;5.48;86.61;98892.47;5084022;28;19946;-82
2021/12/10 08:40:01;;;;;;;;;;;;;;;5.49;86.81;98890.69;5088483;28;19930;-81
2021/12/10 08:42:27;;;;;;;;;;;;;;;5.47;86.39;98888.97;5084986;28;20090;-81
2021/12/10 08:44:54;;;;;;;;;;;;;;;5.46;86.60;98903.19;5084151;28;19928;-81
2021/12/10 08:47:22;;;;;;;;;;;;;;;5.49;86.69;98895.97;5085862;28;19996;-81
2021/12/10 08:49:48;;;;;;;;;;;;;;;5.50;87.04;98897.63;5079043;28;19937;-81
2021/12/10 08:52:16;;;;;;;;;;;;;;;5.52;86.65;98907.16;5083669;28;19933;-82
2021/12/10 08:54:43;;;;;;;;;;;;;;;5.51;86.59;98905.47;5085325;28;20680;-81
2021/12/10 08:57:12;;;;;;;;;;;;;;;5.49;86.28;98906.56;5083456;28;19928;-81
2021/12/10 08:59:39;;;;;;;;;;;;;;;5.48;86.95;98905.69;5085953;28;19928;-81
2021/12/10 09:02:09;;;;;;;;;;;;;;;5.49;86.83;98903.91;5082753;28;19960;-81
2021/12/10 09:04:35;;;;;;;;;;;;;;;5.45;86.24;98912.09;5064513;28;19940;-82
2021/12/10 09:07:06;;;;;;;;;;;;;;;5.45;86.92;98914.75;5082471;28;19928;-83
2021/12/10 09:09:34;;;;;;;;;;;;;;;5.46;86.65;98918.22;5085023;28;19939;-82
2021/12/10 09:12:01;;;;;;;;;;;;;;;5.45;86.62;98930.63;5082873;28;20006;-82
2021/12/10 09:14:35;;;;;;;;;;;;;;;5.45;86.76;98919.22;5085926;28;20015;-80
2021/12/10 09:17:03;;;;;;;;;;;;;;;5.47;86.71;98928.69;5075030;28;20003;-81
2021/12/10 09:19:30;;;;;;;;;;;;;;;5.46;86.50;98927.03;5078949;28;20299;-81
2021/12/10 09:21:57;;;;;;;;;;;;;;;5.44;85.88;98936.91;5084679;28;20373;-83
2021/12/10 09:24:24;;;;;;;;;;;;;;;5.42;86.67;98925.56;5084255;28;20027;-81
2021/12/10 09:26:53;;;;;;;;;;;;;;;5.42;86.89;98937.97;5087092;28;19954;-81
2021/12/10 09:29:21;;;;;;;;;;;;;;;5.43;86.65;98934.38;5083463;28;19928;-80
2021/12/10 09:31:51;;;;;;;;;;;;;;;5.43;86.46;98940.50;5085437;28;21353;-82
2021/12/10 09:34:18;;;;;;;;;;;;;;;5.45;86.96;98943.03;5077391;28;20054;-82
2021/12/10 09:36:45;;;;;;;;;;;;;;;5.48;86.50;98950.72;5084225;28;19924;-85
2021/12/10 09:39:13;;;;;;;;;;;;;;;5.47;86.49;98954.34;5079030;28;19990;-80
2021/12/10 09:41:39;;;;;;;;;;;;;;;5.48;86.64;98948.06;5083911;28;19978;-82
2021/12/10 09:44:07;;;;;;;;;;;;;;;5.54;87.01;98955.53;5080392;28;19936;-81
2021/12/10 09:46:34;;;;;;;;;;;;;;;5.58;86.85;98958.75;5082090;28;19924;-82
2021/12/10 09:49:03;;;;;;;;;;;;;;;5.62;87.22;98965.50;5082058;28;19991;-81
2021/12/10 09:51:31;;;;;;;;;;;;;;;5.64;86.91;98960.91;5080983;28;19935;-81
2021/12/10 09:53:59;;;;;;;;;;;;;;;5.65;86.96;98966.09;5083053;28;19997;-81
2021/12/10 09:56:26;;;;;;;;;;;;;;;5.68;86.80;98967.63;5082655;28;19972;-82
2021/12/10 09:58:53;;;;;;;;;;;;;;;5.70;86.56;98965.69;5080258;28;20031;-81
2021/12/10 10:01:22;;;;;;;;;;;;;;;5.68;86.69;98967.63;5078029;28;19987;-82
2021/12/10 10:03:49;;;;;;;;;;;;;;;5.69;86.83;98969.31;5081230;28;19934;-81
2021/12/10 10:06:17;;;;;;;;;;;;;;;5.66;86.66;98965.09;5081053;28;19929;-82
2021/12/10 10:08:45;;;;;;;;;;;;;;;5.68;86.68;98962.31;5082817;28;19924;-82
2021/12/10 10:11:13;;;;;;;;;;;;;;;5.70;87.03;98963.03;5082363;28;20328;-81
2021/12/10 10:13:41;;;;;;;;;;;;;;;5.71;86.81;98966.53;5084555;28;19979;-82
2021/12/10 10:16:09;;;;;;;;;;;;;;;5.73;86.97;98972.56;5081821;28;20018;-82
2021/12/10 10:18:36;;;;;;;;;;;;;;;5.72;86.42;98971.69;5080918;28;20015;-82
2021/12/10 10:21:06;;;;;;;;;;;;;;;5.75;87.20;98971.47;5081622;28;19985;-82
2021/12/10 10:23:34;;;;;;;;;;;;;;;5.74;87.02;98977.72;5077399;28;19928;-81
2021/12/10 10:26:04;;;;;;;;;;;;;;;5.76;86.72;98988.19;5076753;28;19928;-83
2021/12/10 10:28:30;;;;;;;;;;;;;;;5.75;86.37;98984.72;5082694;28;20642;-81
2021/12/10 10:31:01;;;;;;;;;;;;;;;5.73;86.50;98986.63;5082698;28;19971;-81
2021/12/10 10:33:28;;;;;;;;;;;;;;;5.70;86.43;98978.94;5083830;28;20359;-81
2021/12/10 10:35:57;;;;;;;;;;;;;;;5.73;86.97;98981.34;5079988;28;20418;-81
2021/12/10 10:38:24;;;;;;;;;;;;;;;5.74;86.88;98979.53;5081497;28;19924;-81
2021/12/10 10:40:54;;;;;;;;;;;;;;;5.76;86.87;98983.72;5078448;28;20380;-81
2021/12/10 10:43:21;;;;;;;;;;;;;;;5.80;87.27;98982.53;5075326;28;19929;-80
2021/12/10 10:45:47;;;;;;;;;;;;;;;5.82;86.94;98983.25;5081092;28;20030;-81
2021/12/10 10:48:16;;;;;;;;;;;;;;;5.84;87.02;98983.13;5079574;28;19979;-83
2021/12/10 10:50:48;;;;;;;;;;;;;;;5.83;86.75;98986.72;5079966;28;19968;-81
2021/12/10 10:53:17;;;;;;;;;;;;;;;5.84;87.14;98989.25;5077506;28;20622;-83
2021/12/10 10:55:50;;;;;;;;;;;;;;;5.89;87.38;98995.97;5081427;28;19978;-82
2021/12/10 10:58:18;;;;;;;;;;;;;;;5.94;87.25;99002.56;5075587;28;20015;-82
2021/12/10 11:00:51;;;;;;;;;;;;;;;5.95;87.06;98995.47;5076427;28;19928;-81
2021/12/10 11:03:20;;;;;;;;;;;;;;;5.94;86.72;98997.28;5073074;28;19936;-81
2021/12/10 11:05:49;;;;;;;;;;;;;;;5.94;86.90;98991.97;5081139;28;19924;-81
2021/12/10 11:08:25;;;;;;;;;;;;;;;5.98;87.36;98990.78;5079099;28;21378;-81
2021/12/10 11:10:51;;;;;;;;;;;;;;;6.01;87.08;98989.72;5078722;28;21440;-81
2021/12/10 11:13:23;;;;;;;;;;;;;;;6.04;87.09;99000.03;5079065;28;20019;-81
2021/12/10 11:16:01;;;;;;;;;;;;;;;6.02;86.91;99004.63;5078133;28;19958;-81
2021/12/10 11:18:28;;;;;;;;;;;;;;;6.00;86.90;99007.38;5078611;28;20319;-81
2021/12/10 11:20:55;;;;;;;;;;;;;;;6.02;86.79;99012.56;5079157;28;20828;-82
2021/12/10 11:23:25;;;;;;;;;;;;;;;6.04;86.65;99018.59;5076632;28;19933;-82
2021/12/10 11:25:53;;;;;;;;;;;;;;;6.01;86.29;99021.50;5076783;28;20450;-81
2021/12/10 11:28:25;;;;;;;;;;;;;;;6.00;86.36;99027.75;5077497;28;20017;-81
2021/12/10 11:30:52;;;;;;;;;;;;;;;6.00;86.66;99018.00;5080732;28;19925;-82
2021/12/10 11:33:20;;;;;;;;;;;;;;;6.02;86.33;99017.88;5079199;28;20287;-81
2021/12/10 11:35:48;;;;;;;;;;;;;;;6.01;86.57;99019.69;5082525;28;19928;-82
2021/12/10 11:38:16;;;;;;;;;;;;;;;6.04;86.64;99022.06;5078133;28;19938;-82
2021/12/10 11:40:50;;;;;;;;;;;;;;;6.09;86.83;99026.16;5082654;28;19928;-82
2021/12/10 11:43:44;;;;;;;;;;;;;;;6.10;86.78;99026.00;5070576;28;20360;-82
2021/12/10 11:46:31;;;;;;;;;;;;;;;6.13;86.68;99019.66;5073524;28;19928;-82
2021/12/10 11:49:03;;;;;;;;;;;;;;;6.15;86.55;99033.59;5074368;28;19932;-82
2021/12/10 11:51:35;;;;;;;;;;;;;;;6.17;86.08;99029.00;5072658;28;20204;-81
2021/12/10 11:54:02;;;;;;;;;;;;;;;6.17;86.43;99029.84;5076071;28;19981;-81
2021/12/10 11:56:30;;;;;;;;;;;;;;;6.17;85.88;99027.19;5075484;28;19932;-81
2021/12/10 11:59:15;;;;;;;;;;;;;;;6.19;86.21;99032.38;5071158;28;19933;-81
2021/12/10 12:01:48;;;;;;;;;;;;;;;6.19;86.43;99035.03;5075337;28;19932;-81
2021/12/10 12:04:16;;;;;;;;;;;;;;;6.23;86.43;99044.41;5073861;28;20279;-81
2021/12/10 12:06:43;;;;;;;;;;;;;;;6.26;86.18;99036.22;5070531;28;20269;-81
2021/12/10 12:09:09;;;;;;;;;;;;;;;6.27;85.81;99048.47;5071186;28;20014;-82
2021/12/10 12:11:36;;;;;;;;;;;;;;;6.29;85.76;99040.41;5068487;28;19932;-82
2021/12/10 12:14:22;;;;;;;;;;;;;;;6.33;86.00;99045.34;5067883;28;20001;-82
2021/12/10 12:16:50;;;;;;;;;;;;;;;6.37;85.82;99052.06;5073607;28;20023;-81
2021/12/10 12:19:16;;;;;;;;;;;;;;;6.40;86.20;99058.91;5069130;28;19932;-82
2021/12/10 12:27:18;;;;;;;;;;;;;;;6.43;85.69;99071.94;5069859;28;19987;-81
2021/12/10 12:29:47;;;;;;;;;;;;;;;6.42;85.56;99064.91;5067191;28;19938;-81
2021/12/10 12:32:19;;;;;;;;;;;;;;;6.39;85.47;99071.34;5069502;28;19928;-81
2021/12/10 12:34:46;;;;;;;;;;;;;;;6.39;85.24;99070.50;5070807;28;19928;-82
2021/12/10 12:37:14;;;;;;;;;;;;;;;6.38;85.35;99076.75;5070371;28;20267;-81
2021/12/10 12:39:41;;;;;;;;;;;;;;;6.38;85.32;99080.25;5074175;28;19931;-82
2021/12/10 12:42:17;;;;;;;;;;;;;;;6.41;85.78;99085.31;5071527;28;19932;-82
2021/12/10 12:44:43;;;;;;;;;;;;;;;6.42;85.44;99081.69;5070648;28;19932;-82
2021/12/10 12:47:13;;;;;;;;;;;;;;;6.41;85.20;99090.59;5071145;28;19932;-82
2021/12/10 12:49:56;;;;;;;;;;;;;;;6.42;85.79;99091.44;5071358;28;19932;-82
2021/12/10 12:52:24;;;;;;;;;;;;;;;6.46;85.34;99098.19;5065778;28;19939;-81
2021/12/10 12:55:08;;;;;;;;;;;;;;;6.49;85.49;99097.09;5070524;28;19939;-81
2021/12/10 12:57:37;;;;;;;;;;;;;;;6.51;85.10;99097.81;5066442;28;19932;-81
2021/12/10 13:00:04;;;;;;;;;;;;;;;6.53;85.88;99102.00;5069915;28;19932;-82
2021/12/10 13:02:34;;;;;;;;;;;;;;;6.55;85.09;99102.72;5068981;28;19974;-82
2021/12/10 13:05:04;;;;;;;;;;;;;;;6.57;85.56;99113.19;5072880;28;19932;-82
2021/12/10 13:07:31;;;;;;;;;;;;;;;6.56;85.08;99114.19;5065879;28;19977;-81
2021/12/10 13:10:01;;;;;;;;;;;;;;;6.57;85.00;99113.19;5066402;28;21145;-82
2021/12/10 13:12:38;;;;;;;;;;;;;;;6.58;84.87;99120.19;5066562;28;20559;-81
2021/12/10 13:15:08;;;;;;;;;;;;;;;6.62;85.04;99129.59;5066651;28;20153;-82